createdAt,value
2022-10-29T00:01:00.157Z,87.90
2022-10-29T00:03:27.512Z,88.50
2022-10-29T00:05:58.357Z,87.60
2022-10-29T00:08:26.086Z,87.20
2022-10-29T00:10:53.492Z,87.20
2022-10-29T00:13:20.966Z,85.50
2022-10-29T00:15:49.989Z,85.10
2022-10-29T00:18:18.009Z,84.90
2022-10-29T00:20:45.213Z,87.40
2022-10-29T00:23:12.471Z,90.00
2022-10-29T00:25:39.768Z,90.80
2022-10-29T00:28:07.148Z,90.30
2022-10-29T00:30:39.225Z,88.70
2022-10-29T00:33:08.576Z,89.70
2022-10-29T00:35:36.592Z,90.00
2022-10-29T00:38:04.079Z,89.20
2022-10-29T00:40:31.329Z,89.40
2022-10-29T00:43:19.091Z,89.90
2022-10-29T00:46:14.006Z,88.70
2022-10-29T00:48:46.883Z,88.20
2022-10-29T00:51:15.972Z,88.10
2022-10-29T00:53:50.026Z,88.40
2022-10-29T00:56:18.520Z,86.00
2022-10-29T00:58:46.278Z,86.40
2022-10-29T01:01:14.563Z,88.00
2022-10-29T01:03:42.359Z,88.60
2022-10-29T01:06:09.663Z,88.20
2022-10-29T01:08:37.182Z,86.40
2022-10-29T01:11:22.099Z,84.80
2022-10-29T01:14:14.957Z,83.70
2022-10-29T01:16:57.406Z,83.10
2022-10-29T01:19:36.860Z,82.50
2022-10-29T01:22:54.825Z,81.50
2022-10-29T01:25:25.192Z,80.80
2022-10-29T01:28:05.559Z,80.80
2022-10-29T01:30:59.761Z,83.30
2022-10-29T01:33:46.612Z,85.30
2022-10-29T01:36:25.797Z,87.60
2022-10-29T01:38:57.504Z,87.50
2022-10-29T01:41:40.178Z,89.50
2022-10-29T01:44:23.332Z,90.60
2022-10-29T01:47:01.176Z,89.90
2022-10-29T01:49:38.729Z,89.00
2022-10-29T01:52:10.545Z,87.70
2022-10-29T01:54:43.672Z,88.60
2022-10-29T01:57:26.205Z,89.50
2022-10-29T01:59:56.058Z,88.30
2022-10-29T02:03:00.004Z,85.80
2022-10-29T02:05:30.289Z,87.20
2022-10-29T02:08:23.294Z,86.40
2022-10-29T02:11:08.897Z,85.30
2022-10-29T02:13:44.680Z,86.80
2022-10-29T02:16:12.779Z,89.30
2022-10-29T02:18:44.676Z,90.50
2022-10-29T02:21:16.373Z,89.90
2022-10-29T02:23:43.875Z,88.20
2022-10-29T02:26:11.374Z,86.20
2022-10-29T02:28:39.341Z,84.80
2022-10-29T02:31:06.832Z,84.80
2022-10-29T02:33:34.363Z,84.40
2022-10-29T02:36:01.835Z,85.20
2022-10-29T02:38:29.028Z,84.70
2022-10-29T02:40:56.320Z,82.90
2022-10-29T02:43:23.555Z,81.90
2022-10-29T02:46:09.419Z,85.20
2022-10-29T02:48:37.155Z,88.40
2022-10-29T02:51:04.598Z,90.10
2022-10-29T02:53:31.942Z,90.20
2022-10-29T02:55:59.233Z,88.60
2022-10-29T02:58:26.632Z,86.50
2022-10-29T03:00:56.424Z,86.50
2022-10-29T03:03:24.695Z,86.80
2022-10-29T03:05:52.576Z,86.20
2022-10-29T03:08:20.289Z,86.80
2022-10-29T03:10:48.432Z,90.70
2022-10-29T03:13:15.772Z,91.70
2022-10-29T03:15:48.059Z,91.70
2022-10-29T03:18:15.497Z,91.30
2022-10-29T03:20:43.724Z,88.40
2022-10-29T03:23:11.140Z,88.30
2022-10-29T03:25:38.736Z,90.00
2022-10-29T03:28:06.469Z,90.30
2022-10-29T03:30:35.216Z,90.10
2022-10-29T03:33:04.023Z,88.40
2022-10-29T03:35:31.401Z,87.90
2022-10-29T03:37:58.931Z,87.40
2022-10-29T03:40:26.700Z,88.30
2022-10-29T03:42:54.374Z,88.60
2022-10-29T03:45:22.079Z,86.90
2022-10-29T03:47:49.378Z,89.20
2022-10-29T03:50:16.775Z,89.30
2022-10-29T03:52:43.957Z,92.30
2022-10-29T03:55:11.550Z,93.00
2022-10-29T03:57:38.784Z,91.90
2022-10-29T04:00:06.706Z,89.40
2022-10-29T04:02:43.305Z,88.60
2022-10-29T04:05:10.701Z,90.00
2022-10-29T04:07:37.900Z,90.60
2022-10-29T04:10:05.922Z,90.90
2022-10-29T04:12:33.199Z,89.70
2022-10-29T04:15:00.903Z,88.60
2022-10-29T04:17:28.740Z,87.30
2022-10-29T04:19:56.389Z,84.60
2022-10-29T04:24:35.778Z,83.60
2022-10-29T04:30:49.979Z,85.40
2022-10-29T04:33:17.789Z,84.60
2022-10-29T04:35:46.060Z,83.20
2022-10-29T04:38:13.563Z,85.20
2022-10-29T04:40:40.961Z,86.80
2022-10-29T04:43:08.237Z,86.30
2022-10-29T04:48:09.472Z,86.20
2022-10-29T04:50:39.957Z,87.90
2022-10-29T04:53:08.088Z,89.10
2022-10-29T04:55:38.582Z,88.60
2022-10-29T04:58:07.864Z,88.50
2022-10-29T05:00:39.209Z,89.30
2022-10-29T05:03:08.466Z,90.20
2022-10-29T05:05:38.080Z,91.50
2022-10-29T05:08:06.502Z,90.60
2022-10-29T05:10:37.570Z,89.80
2022-10-29T05:13:07.620Z,89.40
2022-10-29T05:15:40.186Z,88.80
2022-10-29T05:18:10.463Z,88.40
2022-10-29T05:20:37.816Z,87.50
2022-10-29T05:23:07.602Z,84.80
2022-10-29T05:25:36.714Z,84.20
2022-10-29T05:28:06.516Z,83.70
2022-10-29T05:30:39.363Z,83.70
2022-10-29T05:33:11.943Z,83.20
2022-10-29T05:35:39.232Z,85.10
2022-10-29T05:38:06.631Z,86.50
2022-10-29T05:40:33.985Z,86.10
2022-10-29T05:43:02.012Z,84.40
2022-10-29T05:45:30.341Z,83.80
2022-10-29T05:47:59.536Z,86.30
2022-10-29T05:50:29.307Z,89.40
2022-10-29T05:53:04.789Z,90.50
2022-10-29T05:55:34.026Z,90.00
2022-10-29T05:58:04.221Z,87.20
2022-10-29T06:00:37.588Z,87.30
2022-10-29T06:03:33.019Z,86.30
2022-10-29T06:06:01.071Z,84.90
2022-10-29T06:08:32.717Z,83.20
2022-10-29T06:11:05.432Z,80.90
2022-10-29T06:13:32.732Z,80.90
2022-10-29T06:16:00.980Z,81.20
2022-10-29T06:18:29.256Z,80.90
2022-10-29T06:20:59.832Z,81.30
2022-10-29T06:23:29.736Z,82.40
2022-10-29T06:26:01.643Z,83.00
2022-10-29T06:28:34.625Z,83.10
2022-10-29T06:31:03.330Z,83.20
2022-10-29T06:33:31.447Z,83.20
2022-10-29T06:36:00.729Z,83.40
2022-10-29T06:38:29.201Z,83.10
2022-10-29T06:40:58.657Z,81.90
2022-10-29T06:43:26.718Z,81.80
2022-10-29T06:45:57.700Z,81.20
2022-10-29T06:48:26.342Z,80.50
2022-10-29T06:50:53.727Z,80.00
2022-10-29T06:53:21.531Z,80.10
2022-10-29T06:55:49.314Z,81.10
2022-10-29T06:58:18.849Z,82.80
2022-10-29T07:00:50.647Z,82.90
2022-10-29T07:03:20.001Z,83.00
2022-10-29T07:05:47.755Z,81.90
2022-10-29T07:08:16.200Z,83.60
2022-10-29T07:10:43.394Z,83.00
2022-10-29T07:13:11.424Z,83.00
2022-10-29T07:15:44.681Z,83.10
2022-10-29T07:18:13.613Z,83.40
2022-10-29T07:20:43.950Z,81.90
2022-10-29T07:23:11.962Z,81.40
2022-10-29T07:25:39.986Z,80.60
2022-10-29T07:28:12.210Z,80.60
2022-10-29T07:30:44.261Z,80.70
2022-10-29T07:33:12.066Z,80.20
2022-10-29T07:35:39.338Z,79.20
2022-10-29T07:38:10.778Z,78.80
2022-10-29T07:40:41.597Z,78.90
2022-10-29T07:43:09.329Z,79.00
2022-10-29T07:45:42.515Z,78.50
2022-10-29T07:48:13.029Z,78.00
2022-10-29T07:50:40.461Z,77.60
2022-10-29T07:53:08.739Z,77.10
2022-10-29T07:55:36.569Z,77.00
2022-10-29T07:58:07.062Z,76.30
2022-10-29T08:00:39.578Z,75.90
2022-10-29T08:03:08.194Z,74.50
2022-10-29T08:05:35.954Z,74.20
2022-10-29T08:08:04.027Z,74.80
2022-10-29T08:10:33.404Z,73.60
2022-10-29T08:13:03.499Z,73.90
2022-10-29T08:15:34.182Z,74.00
2022-10-29T08:18:04.993Z,74.00
2022-10-29T08:20:32.935Z,73.90
2022-10-29T08:23:01.558Z,72.80
2022-10-29T08:25:30.399Z,73.40
2022-10-29T08:28:03.655Z,73.40
2022-10-29T08:30:33.778Z,71.90
2022-10-29T08:33:02.551Z,72.30
2022-10-29T08:35:30.985Z,72.20
2022-10-29T08:37:59.168Z,72.10
2022-10-29T08:40:29.235Z,71.40
2022-10-29T08:43:35.870Z,71.50
2022-10-29T08:46:03.928Z,71.20
2022-10-29T08:49:09.429Z,71.20
2022-10-29T08:51:44.998Z,71.00
2022-10-29T08:54:31.802Z,70.90
2022-10-29T08:57:06.458Z,70.50
2022-10-29T08:59:37.771Z,71.10
2022-10-29T09:02:05.226Z,70.10
2022-10-29T09:04:38.462Z,69.10
2022-10-29T09:07:09.100Z,68.70
2022-10-29T09:09:54.590Z,67.60
2022-10-29T09:12:49.822Z,68.20
2022-10-29T09:16:01.826Z,68.40
2022-10-29T09:18:52.445Z,68.00
2022-10-29T09:21:44.789Z,67.20
2022-10-29T09:24:41.857Z,66.00
2022-10-29T09:27:24.534Z,66.00
2022-10-29T09:30:27.597Z,63.70
2022-10-29T09:33:05.236Z,63.80
2022-10-29T09:35:39.450Z,62.20
2022-10-29T09:38:38.720Z,62.30
2022-10-29T09:41:09.339Z,62.20
2022-10-29T09:43:42.585Z,61.90
2022-10-29T09:46:16.696Z,60.70
2022-10-29T09:48:51.119Z,60.00
2022-10-29T09:51:31.836Z,59.40
2022-10-29T09:54:00.584Z,58.60
2022-10-29T09:56:28.161Z,57.40
2022-10-29T09:59:21.398Z,57.20
2022-10-29T10:01:48.947Z,54.70
2022-10-29T10:04:29.538Z,55.70
2022-10-29T10:07:17.417Z,56.90
2022-10-29T10:09:54.413Z,54.00
2022-10-29T10:12:43.923Z,52.60
2022-10-29T10:15:19.534Z,51.50
2022-10-29T10:18:16.435Z,49.50
2022-10-29T10:20:47.794Z,46.50
2022-10-29T10:23:44.054Z,43.10
2022-10-29T10:26:40.127Z,40.00
2022-10-29T10:29:12.342Z,37.50
2022-10-29T10:31:48.289Z,37.40
2022-10-29T10:34:21.336Z,36.80
2022-10-29T10:36:54.271Z,35.40
2022-10-29T10:39:28.082Z,37.10
2022-10-29T10:41:59.832Z,39.50
2022-10-29T10:44:28.233Z,40.80
2022-10-29T10:46:59.187Z,42.00
2022-10-29T10:49:36.692Z,41.60
2022-10-29T10:52:27.241Z,41.90
2022-10-29T10:55:10.588Z,42.90
2022-10-29T10:57:54.507Z,41.60
2022-10-29T11:00:23.005Z,43.00
2022-10-29T11:03:00.340Z,42.50
2022-10-29T11:05:54.619Z,43.00
2022-10-29T11:08:29.628Z,43.60
2022-10-29T11:11:05.280Z,43.60
2022-10-29T11:13:34.035Z,42.20
2022-10-29T11:16:28.845Z,41.40
2022-10-29T11:19:07.272Z,41.30
2022-10-29T11:21:45.784Z,43.90
2022-10-29T11:24:33.748Z,43.00
2022-10-29T11:27:23.631Z,41.20
2022-10-29T11:30:03.114Z,41.60
2022-10-29T11:32:35.123Z,42.10
2022-10-29T11:35:07.676Z,42.20
2022-10-29T11:38:16.982Z,42.90
2022-10-29T11:40:51.353Z,38.30
2022-10-29T11:43:21.610Z,39.00
2022-10-29T11:46:23.515Z,40.20
2022-10-29T11:49:15.415Z,40.20
2022-10-29T11:52:17.805Z,38.20
2022-10-29T11:55:15.108Z,39.20
2022-10-29T11:58:02.173Z,39.30
2022-10-29T12:00:45.372Z,41.10
2022-10-29T12:03:34.699Z,40.90
2022-10-29T12:06:45.485Z,39.70
2022-10-29T12:09:46.967Z,37.20
2022-10-29T12:12:18.382Z,36.30
2022-10-29T12:15:12.035Z,37.40
2022-10-29T12:17:49.970Z,36.50
2022-10-29T12:20:55.417Z,36.60
2022-10-29T12:23:25.682Z,37.70
2022-10-29T12:26:31.068Z,37.10
2022-10-29T12:29:27.316Z,37.70
2022-10-29T12:31:59.860Z,37.80
2022-10-29T12:34:53.677Z,38.90
2022-10-29T12:37:59.200Z,37.70
2022-10-29T12:40:32.655Z,38.50
2022-10-29T12:43:07.630Z,37.30
2022-10-29T12:48:42.970Z,37.70
2022-10-29T12:51:10.632Z,37.70
2022-10-29T12:53:51.262Z,39.00
2022-10-29T12:56:19.491Z,37.90
2022-10-29T12:58:53.149Z,37.80
2022-10-29T13:01:38.154Z,38.10
2022-10-29T13:04:31.081Z,37.20
2022-10-29T13:07:00.888Z,38.20
2022-10-29T13:09:36.279Z,37.00
2022-10-29T13:12:11.704Z,37.70
2022-10-29T13:14:41.969Z,38.40
2022-10-29T13:17:37.154Z,36.80
2022-10-29T13:20:33.366Z,37.20
2022-10-29T13:23:04.025Z,38.60
2022-10-29T13:25:37.741Z,37.60
2022-10-29T13:28:08.791Z,38.30
2022-10-29T13:30:42.044Z,37.60
2022-10-29T13:33:24.634Z,40.00
2022-10-29T13:36:01.810Z,38.90
2022-10-29T13:38:58.228Z,39.10
2022-10-29T13:41:43.642Z,38.10
2022-10-29T13:44:13.850Z,38.30
2022-10-29T13:47:22.484Z,38.20
2022-10-29T13:49:51.086Z,37.70
2022-10-29T13:52:20.731Z,38.50
2022-10-29T13:54:54.230Z,39.80
2022-10-29T13:57:33.763Z,39.80
2022-10-29T14:00:07.339Z,39.60
2022-10-29T14:02:44.296Z,44.00
2022-10-29T14:05:15.078Z,39.80
2022-10-29T14:08:01.817Z,43.70
2022-10-29T14:10:41.224Z,41.80
2022-10-29T14:13:30.026Z,42.30
2022-10-29T14:16:07.409Z,41.40
2022-10-29T14:18:45.662Z,40.00
2022-10-29T14:21:39.165Z,41.10
2022-10-29T14:24:10.440Z,42.30
2022-10-29T14:26:43.454Z,38.60
2022-10-29T14:29:18.947Z,42.50
2022-10-29T14:31:47.734Z,40.60
2022-10-29T14:34:28.327Z,37.90
2022-10-29T14:37:12.662Z,38.80
2022-10-29T14:39:57.161Z,38.20
2022-10-29T14:42:32.648Z,38.20
2022-10-29T14:45:05.525Z,37.50
2022-10-29T14:47:36.270Z,37.40
2022-10-29T14:50:13.811Z,38.70
2022-10-29T14:52:53.265Z,37.70
2022-10-29T14:55:31.936Z,37.50
2022-10-29T14:58:07.860Z,37.70
2022-10-29T15:00:41.120Z,38.20
2022-10-29T15:03:19.124Z,40.40
2022-10-29T15:05:48.829Z,44.00
2022-10-29T15:08:24.110Z,46.70
2022-10-29T15:10:54.411Z,48.70
2022-10-29T15:13:27.715Z,51.20
2022-10-29T15:16:01.663Z,52.70
2022-10-29T15:18:30.852Z,53.70
2022-10-29T15:20:59.066Z,54.00
2022-10-29T15:23:31.070Z,53.90
2022-10-29T15:26:05.034Z,55.20
2022-10-29T15:28:40.323Z,53.70
2022-10-29T15:31:18.281Z,55.30
2022-10-29T15:33:45.936Z,54.50
2022-10-29T15:36:13.144Z,51.50
2022-10-29T15:38:52.002Z,52.10
2022-10-29T15:41:19.897Z,51.60
2022-10-29T15:43:55.006Z,51.90
2022-10-29T15:46:30.426Z,54.90
2022-10-29T15:48:57.815Z,54.30
2022-10-29T15:51:28.275Z,54.90
2022-10-29T15:53:57.002Z,55.10
2022-10-29T15:56:25.076Z,55.00
2022-10-29T15:58:53.329Z,54.00
2022-10-29T16:01:20.758Z,54.70
2022-10-29T16:03:48.450Z,55.10
2022-10-29T16:06:16.410Z,57.30
2022-10-29T16:08:55.646Z,57.70
2022-10-29T16:11:23.881Z,57.70
2022-10-29T16:13:55.186Z,56.50
2022-10-29T16:16:24.325Z,58.30
2022-10-29T16:18:52.788Z,58.70
2022-10-29T16:21:24.830Z,59.80
2022-10-29T16:23:52.719Z,57.20
2022-10-29T16:26:25.420Z,58.90
2022-10-29T16:28:53.480Z,59.60
2022-10-29T16:31:29.338Z,60.80
2022-10-29T16:34:03.601Z,61.70
2022-10-29T16:36:30.950Z,61.10
2022-10-29T16:38:58.107Z,61.10
2022-10-29T16:41:26.008Z,62.20
2022-10-29T16:43:53.371Z,62.00
2022-10-29T16:46:20.870Z,62.30
2022-10-29T16:48:48.220Z,61.60
2022-10-29T16:51:15.844Z,63.10
2022-10-29T16:53:43.110Z,63.40
2022-10-29T16:56:10.819Z,64.00
2022-10-29T16:58:39.185Z,63.60
2022-10-29T17:01:10.682Z,63.40
2022-10-29T17:03:41.764Z,62.60
2022-10-29T17:06:11.542Z,63.70
2022-10-29T17:08:40.005Z,62.80
2022-10-29T17:11:11.338Z,63.30
2022-10-29T17:13:39.692Z,63.10
2022-10-29T17:16:14.782Z,63.20
2022-10-29T17:18:42.850Z,66.00
2022-10-29T17:21:10.563Z,66.80
2022-10-29T17:23:39.437Z,66.50
2022-10-29T17:26:06.807Z,66.20
2022-10-29T17:28:37.007Z,65.50
2022-10-29T17:31:07.136Z,65.00
2022-10-29T17:33:36.111Z,64.10
2022-10-29T17:36:07.225Z,63.70
2022-10-29T17:38:34.842Z,63.70
2022-10-29T17:41:02.133Z,66.30
2022-10-29T17:43:29.715Z,67.90
2022-10-29T17:45:58.402Z,68.40
2022-10-29T17:48:26.138Z,68.40
2022-10-29T17:50:58.627Z,68.40
2022-10-29T17:53:27.457Z,67.70
2022-10-29T17:55:59.493Z,66.80
2022-10-29T17:58:27.341Z,66.80
2022-10-29T18:00:57.510Z,67.00
2022-10-29T18:03:26.933Z,67.60
2022-10-29T18:06:00.005Z,68.00
2022-10-29T18:08:28.553Z,67.90
2022-10-29T18:11:17.442Z,67.40
2022-10-29T18:13:46.202Z,67.00
2022-10-29T18:16:18.463Z,66.80
2022-10-29T18:19:01.236Z,66.40
2022-10-29T18:21:30.797Z,66.20
2022-10-29T18:23:58.519Z,66.40
2022-10-29T18:26:35.329Z,66.90
2022-10-29T18:29:08.835Z,67.60
2022-10-29T18:31:38.358Z,70.50
2022-10-29T18:34:08.194Z,72.30
2022-10-29T18:36:36.049Z,72.20
2022-10-29T18:39:05.451Z,71.20
2022-10-29T18:41:38.181Z,70.80
2022-10-29T18:44:07.386Z,70.50
2022-10-29T18:46:37.021Z,70.90
2022-10-29T18:49:05.582Z,70.50
2022-10-29T18:51:33.579Z,71.60
2022-10-29T18:54:01.154Z,72.00
2022-10-29T18:56:30.687Z,71.70
2022-10-29T18:58:58.898Z,71.40
2022-10-29T19:01:37.336Z,70.60
2022-10-29T19:04:07.536Z,69.60
2022-10-29T19:06:37.341Z,70.60
2022-10-29T19:09:07.265Z,72.20
2022-10-29T19:11:35.667Z,73.60
2022-10-29T19:14:07.234Z,74.20
2022-10-29T19:16:35.179Z,74.20
2022-10-29T19:19:08.403Z,73.70
2022-10-29T19:21:38.241Z,72.70
2022-10-29T19:24:08.209Z,72.90
2022-10-29T19:26:36.494Z,74.40
2022-10-29T19:29:05.549Z,75.60
2022-10-29T19:31:34.883Z,76.20
2022-10-29T19:34:06.207Z,76.00
2022-10-29T19:36:34.772Z,74.90
2022-10-29T19:39:02.544Z,73.60
2022-10-29T19:41:30.664Z,72.40
2022-10-29T19:44:01.839Z,71.70
2022-10-29T19:46:30.535Z,71.30
2022-10-29T19:48:58.977Z,71.00
2022-10-29T19:51:26.776Z,71.50
2022-10-29T19:53:58.087Z,73.60
2022-10-29T19:56:25.709Z,74.60
2022-10-29T19:58:53.033Z,75.00
2022-10-29T20:01:20.955Z,74.40
2022-10-29T20:03:48.639Z,73.50
2022-10-29T20:06:17.998Z,75.70
2022-10-29T20:08:45.682Z,76.20
2022-10-29T20:11:12.976Z,75.50
2022-10-29T20:13:41.087Z,75.90
2022-10-29T20:16:20.001Z,75.30
2022-10-29T20:18:48.372Z,74.20
2022-10-29T20:21:16.458Z,73.10
2022-10-29T20:23:44.922Z,72.70
2022-10-29T20:26:13.277Z,73.50
2022-10-29T20:28:41.242Z,73.90
2022-10-29T20:31:24.488Z,74.30
2022-10-29T20:33:52.510Z,75.50
2022-10-29T20:36:20.578Z,76.00
2022-10-29T20:38:52.800Z,76.80
2022-10-29T20:41:21.116Z,78.00
2022-10-29T20:43:53.977Z,77.70
2022-10-29T20:46:23.158Z,76.50
2022-10-29T20:48:50.407Z,75.50
2022-10-29T20:51:17.825Z,74.50
2022-10-29T20:53:45.402Z,74.30
2022-10-29T20:56:16.159Z,75.10
2022-10-29T20:58:44.603Z,75.50
2022-10-29T21:01:15.090Z,74.80
2022-10-29T21:03:43.619Z,75.00
2022-10-29T21:06:16.983Z,76.10
2022-10-29T21:08:46.355Z,77.70
2022-10-29T21:11:16.005Z,77.80
2022-10-29T21:13:43.503Z,76.60
2022-10-29T21:16:19.706Z,76.60
2022-10-29T21:18:49.337Z,75.90
2022-10-29T21:21:17.616Z,75.10
2022-10-29T21:23:45.618Z,73.80
2022-10-29T21:26:16.086Z,73.00
2022-10-29T21:28:43.614Z,73.00
2022-10-29T21:31:10.888Z,73.00
2022-10-29T21:33:38.992Z,73.30
2022-10-29T21:36:06.476Z,77.00
2022-10-29T21:38:34.088Z,79.20
2022-10-29T21:41:02.720Z,80.60
2022-10-29T21:43:31.231Z,80.00
2022-10-29T21:46:01.124Z,79.80
2022-10-29T21:48:29.603Z,79.60
2022-10-29T21:51:17.674Z,79.10
2022-10-29T21:53:47.030Z,78.00
2022-10-29T21:56:15.488Z,76.80
2022-10-29T21:58:43.687Z,76.00
2022-10-29T22:01:16.640Z,75.10
2022-10-29T22:03:46.369Z,74.50
2022-10-29T22:06:18.870Z,74.30
2022-10-29T22:08:47.310Z,74.50
2022-10-29T22:11:17.098Z,75.80
2022-10-29T22:13:44.387Z,75.40
2022-10-29T22:16:12.410Z,75.80
2022-10-29T22:18:40.255Z,77.30
2022-10-29T22:21:17.949Z,77.90
2022-10-29T22:23:50.302Z,80.30
2022-10-29T22:26:19.735Z,82.50
2022-10-29T22:28:50.230Z,85.00
2022-10-29T22:31:18.631Z,86.00
2022-10-29T22:33:46.806Z,84.90
2022-10-29T22:36:32.135Z,85.50
2022-10-29T22:39:00.670Z,84.30
2022-10-29T22:41:28.957Z,82.50
2022-10-29T22:44:00.958Z,80.40
2022-10-29T22:46:29.534Z,79.20
2022-10-29T22:48:58.136Z,78.00
2022-10-29T22:51:35.778Z,76.90
2022-10-29T22:54:11.343Z,77.90
2022-10-29T22:56:41.375Z,80.40
2022-10-29T22:59:08.980Z,82.30
2022-10-29T23:01:40.619Z,82.10
2022-10-29T23:04:12.531Z,80.30
2022-10-29T23:06:40.480Z,79.00
2022-10-29T23:09:08.209Z,77.20
2022-10-29T23:11:39.403Z,79.00
2022-10-29T23:14:07.626Z,81.00
2022-10-29T23:16:36.804Z,82.00
2022-10-29T23:19:06.696Z,82.90
2022-10-29T23:21:34.173Z,81.50
2022-10-29T23:24:01.732Z,80.70
2022-10-29T23:26:29.999Z,79.50
2022-10-29T23:28:57.359Z,81.70
2022-10-29T23:31:27.424Z,82.70
2022-10-29T23:33:56.324Z,82.00
2022-10-29T23:36:25.069Z,79.00
2022-10-29T23:39:00.062Z,80.30
2022-10-29T23:41:30.086Z,80.10
2022-10-29T23:43:58.074Z,81.10
2022-10-29T23:46:25.622Z,82.80
2022-10-29T23:48:53.647Z,84.60
2022-10-29T23:51:21.099Z,85.10
2022-10-29T23:53:53.176Z,83.00
2022-10-29T23:56:25.447Z,82.80
2022-10-29T23:58:52.748Z,86.10
